createdAt,value
2022-08-06T00:02:05.935Z,69.58
2022-08-06T00:04:53.479Z,69.49
2022-08-06T00:07:47.702Z,69.47
2022-08-06T00:10:34.045Z,69.55
2022-08-06T00:13:20.727Z,69.38
2022-08-06T00:16:10.855Z,69.42
2022-08-06T00:19:17.794Z,69.47
2022-08-06T00:22:03.682Z,69.37
2022-08-06T00:24:49.637Z,69.28
2022-08-06T00:27:38.385Z,69.07
2022-08-06T00:30:24.648Z,69.10
2022-08-06T00:33:10.467Z,69.16
2022-08-06T00:36:00.997Z,69.20
2022-08-06T00:38:46.873Z,69.15
2022-08-06T00:41:41.639Z,68.88
2022-08-06T00:44:31.665Z,68.72
2022-08-06T00:47:41.278Z,68.82
2022-08-06T00:50:23.164Z,69.25
2022-08-06T00:53:13.819Z,69.26
2022-08-06T00:56:09.024Z,68.98
2022-08-06T00:59:03.256Z,68.78
2022-08-06T01:01:51.254Z,68.48
2022-08-06T01:04:37.624Z,68.39
2022-08-06T01:07:24.083Z,68.81
2022-08-06T01:10:30.962Z,68.95
2022-08-06T01:14:03.850Z,68.66
2022-08-06T01:16:39.792Z,68.83
2022-08-06T01:21:56.581Z,68.71
2022-08-06T01:23:32.445Z,69.31
2022-08-06T01:26:33.044Z,69.32
2022-08-06T01:29:35.048Z,68.91
2022-08-06T01:32:45.644Z,69.31
2022-08-06T01:35:47.864Z,69.46
2022-08-06T01:38:50.815Z,69.73
2022-08-06T01:41:54.999Z,70.15
2022-08-06T01:44:49.807Z,70.51
2022-08-06T01:47:54.108Z,70.58
2022-08-06T01:50:45.411Z,70.92
2022-08-06T01:54:01.842Z,70.87
2022-08-06T01:56:57.573Z,71.13
2022-08-06T01:59:48.629Z,71.11
2022-08-06T02:02:37.407Z,71.17
2022-08-06T02:05:32.231Z,70.93
2022-08-06T02:08:38.766Z,70.73
2022-08-06T02:12:03.054Z,70.13
2022-08-06T02:14:36.186Z,69.57
2022-08-06T02:18:04.620Z,69.92
2022-08-06T02:20:52.862Z,70.36
2022-08-06T02:23:41.217Z,70.50
2022-08-06T02:26:32.863Z,70.38
2022-08-06T02:29:21.178Z,70.41
2022-08-06T02:32:08.870Z,70.14
2022-08-06T02:34:56.005Z,70.60
2022-08-06T02:38:02.303Z,70.67
2022-08-06T02:40:56.262Z,70.58
2022-08-06T02:43:52.457Z,70.63
2022-08-06T02:46:44.542Z,70.88
2022-08-06T02:49:38.148Z,70.69
2022-08-06T02:52:37.376Z,70.64
2022-08-06T02:55:37.248Z,70.45
2022-08-06T02:58:38.658Z,70.50
2022-08-06T03:01:39.321Z,70.21
2022-08-06T03:04:33.264Z,70.14
2022-08-06T03:07:27.565Z,70.23
2022-08-06T03:10:20.469Z,70.17
2022-08-06T03:13:17.960Z,70.27
2022-08-06T03:16:24.167Z,70.51
2022-08-06T03:19:57.004Z,70.59
2022-08-06T03:22:35.827Z,70.67
2022-08-06T03:25:25.701Z,70.70
2022-08-06T03:28:20.674Z,70.62
2022-08-06T03:31:10.967Z,71.20
2022-08-06T03:33:59.663Z,71.61
2022-08-06T03:36:51.297Z,71.48
2022-08-06T03:39:40.555Z,71.49
2022-08-06T03:42:27.798Z,71.35
2022-08-06T03:45:45.371Z,71.84
2022-08-06T03:48:38.337Z,72.07
2022-08-06T03:51:50.589Z,72.23
2022-08-06T03:54:42.506Z,72.52
2022-08-06T03:57:40.996Z,73.01
2022-08-06T04:00:41.405Z,73.08
2022-08-06T04:03:39.706Z,72.87
2022-08-06T04:06:27.421Z,72.46
2022-08-06T04:09:14.659Z,72.39
2022-08-06T04:12:42.589Z,72.49
2022-08-06T04:15:25.984Z,72.99
2022-08-06T04:18:19.967Z,72.91
2022-08-06T04:21:22.055Z,73.27
2022-08-06T04:24:15.904Z,72.90
2022-08-06T04:27:09.288Z,72.94
2022-08-06T04:30:02.270Z,73.17
2022-08-06T04:33:00.903Z,73.43
2022-08-06T04:36:07.715Z,73.35
2022-08-06T04:38:57.353Z,73.70
2022-08-06T04:41:44.662Z,73.58
2022-08-06T04:44:33.324Z,73.65
2022-08-06T04:47:20.238Z,74.24
2022-08-06T04:50:07.648Z,74.70
2022-08-06T04:53:05.268Z,74.91
2022-08-06T04:56:03.125Z,75.10
2022-08-06T04:58:49.931Z,74.93
2022-08-06T05:01:53.145Z,75.07
2022-08-06T05:04:39.993Z,74.93
2022-08-06T05:07:53.212Z,73.64
2022-08-06T05:11:10.897Z,72.20
2022-08-06T05:14:02.539Z,71.68
2022-08-06T05:16:58.788Z,70.51
2022-08-06T05:19:51.379Z,70.17
2022-08-06T05:22:52.389Z,68.94
2022-08-06T05:25:54.219Z,67.61
2022-08-06T05:28:43.640Z,66.68
2022-08-06T05:31:40.444Z,65.96
2022-08-06T05:34:26.977Z,65.79
2022-08-06T05:37:13.056Z,65.07
2022-08-06T05:39:59.703Z,64.60
2022-08-06T05:42:57.300Z,64.10
2022-08-06T05:45:46.258Z,63.14
2022-08-06T05:48:38.349Z,63.06
2022-08-06T05:51:55.857Z,62.94
2022-08-06T05:55:02.643Z,62.24
2022-08-06T05:58:08.641Z,61.01
2022-08-06T06:01:01.041Z,61.17
2022-08-06T06:03:48.871Z,60.61
2022-08-06T06:06:36.889Z,60.94
2022-08-06T06:09:56.745Z,61.03
2022-08-06T06:12:31.841Z,59.84
2022-08-06T06:16:01.704Z,58.44
2022-08-06T06:18:56.106Z,57.88
2022-08-06T06:22:07.831Z,58.03
2022-08-06T06:25:01.017Z,58.80
2022-08-06T06:27:57.966Z,58.73
2022-08-06T06:32:04.609Z,58.79
2022-08-06T06:34:39.010Z,58.82
2022-08-06T06:37:48.463Z,58.13
2022-08-06T06:41:03.337Z,57.60
2022-08-06T06:46:05.342Z,57.63
2022-08-06T06:48:22.626Z,58.24
2022-08-06T06:51:40.840Z,57.09
2022-08-06T06:54:37.815Z,57.25
2022-08-06T06:57:45.931Z,58.39
2022-08-06T07:00:43.537Z,57.37
2022-08-06T07:03:42.652Z,57.13
2022-08-06T07:06:43.352Z,56.17
2022-08-06T07:09:40.972Z,56.40
2022-08-06T07:12:33.906Z,56.16
2022-08-06T07:15:24.069Z,56.05
2022-08-06T07:18:26.224Z,56.23
2022-08-06T07:21:19.283Z,55.92
2022-08-06T07:24:32.338Z,55.89
2022-08-06T07:27:16.136Z,55.48
2022-08-06T07:30:03.272Z,55.06
2022-08-06T07:32:52.652Z,54.66
2022-08-06T07:35:42.300Z,55.51
2022-08-06T07:38:32.366Z,55.32
2022-08-06T07:41:31.534Z,54.61
2022-08-06T07:44:29.604Z,54.58
2022-08-06T07:47:29.569Z,53.80
2022-08-06T07:50:16.426Z,54.67
2022-08-06T07:53:02.879Z,53.69
2022-08-06T07:55:48.828Z,53.66
2022-08-06T07:58:39.775Z,53.32
2022-08-06T08:01:37.033Z,53.75
2022-08-06T08:04:57.256Z,53.53
2022-08-06T08:07:57.183Z,52.49
2022-08-06T08:10:44.360Z,53.12
2022-08-06T08:13:41.647Z,52.58
2022-08-06T08:16:33.791Z,52.05
2022-08-06T08:19:35.106Z,53.13
2022-08-06T08:22:24.235Z,51.94
2022-08-06T08:25:10.464Z,52.07
2022-08-06T08:28:00.808Z,51.37
2022-08-06T08:30:49.482Z,51.13
2022-08-06T08:33:37.165Z,51.56
2022-08-06T08:36:30.863Z,52.87
2022-08-06T08:39:17.180Z,51.76
2022-08-06T08:42:32.060Z,51.81
2022-08-06T08:45:19.545Z,50.96
2022-08-06T08:48:15.475Z,52.38
2022-08-06T08:51:13.699Z,51.21
2022-08-06T08:54:10.120Z,51.02
2022-08-06T08:57:08.282Z,51.25
2022-08-06T09:00:10.860Z,50.82
2022-08-06T09:02:57.572Z,51.27
2022-08-06T09:05:47.083Z,51.01
2022-08-06T09:09:02.430Z,50.91
2022-08-06T09:12:03.752Z,50.37
2022-08-06T09:14:47.031Z,51.15
2022-08-06T09:18:12.315Z,49.97
2022-08-06T09:20:45.669Z,49.88
2022-08-06T09:23:36.858Z,51.36
2022-08-06T09:26:54.762Z,50.66
2022-08-06T09:30:11.788Z,51.84
2022-08-06T09:34:29.262Z,51.00
2022-08-06T09:36:32.791Z,49.62
2022-08-06T09:40:00.254Z,50.27
2022-08-06T09:42:51.306Z,48.72
2022-08-06T09:45:47.503Z,49.44
2022-08-06T09:48:36.086Z,49.80
2022-08-06T09:51:26.723Z,47.93
2022-08-06T09:54:38.418Z,49.55
2022-08-06T09:57:33.049Z,48.39
2022-08-06T10:00:33.083Z,47.56
2022-08-06T10:04:03.344Z,48.28
2022-08-06T10:06:29.674Z,48.14
2022-08-06T10:09:41.730Z,47.86
2022-08-06T10:12:26.895Z,47.52
2022-08-06T10:15:57.764Z,49.21
2022-08-06T10:18:56.246Z,50.21
2022-08-06T10:21:46.668Z,50.54
2022-08-06T10:24:48.780Z,49.92
2022-08-06T10:27:38.201Z,50.02
2022-08-06T10:30:25.087Z,51.35
2022-08-06T10:33:22.230Z,51.97
2022-08-06T10:36:22.156Z,52.60
2022-08-06T10:40:07.209Z,53.69
2022-08-06T10:42:22.186Z,50.58
2022-08-06T10:45:16.135Z,49.75
2022-08-06T10:48:59.449Z,48.69
2022-08-06T10:51:15.108Z,48.20
2022-08-06T10:54:19.938Z,49.63
2022-08-06T10:57:10.818Z,49.41
2022-08-06T11:00:03.242Z,49.46
2022-08-06T11:03:16.581Z,50.04
2022-08-06T11:06:18.054Z,48.84
2022-08-06T11:10:00.056Z,49.63
2022-08-06T11:12:47.925Z,49.29
2022-08-06T11:15:38.377Z,48.17
2022-08-06T11:18:28.321Z,48.86
2022-08-06T11:21:58.946Z,49.74
2022-08-06T11:24:55.543Z,49.67
2022-08-06T11:28:02.839Z,49.56
2022-08-06T11:31:33.534Z,49.14
2022-08-06T11:34:48.612Z,49.65
2022-08-06T11:38:00.894Z,50.23
2022-08-06T11:41:51.489Z,50.00
2022-08-06T11:44:42.931Z,49.22
2022-08-06T11:48:05.236Z,48.62
2022-08-06T11:50:52.576Z,49.52
2022-08-06T11:53:46.527Z,48.20
2022-08-06T11:56:59.631Z,48.89
2022-08-06T11:59:58.570Z,49.51
2022-08-06T12:02:56.940Z,49.18
2022-08-06T12:05:56.853Z,47.39
2022-08-06T12:09:11.926Z,45.94
2022-08-06T12:12:34.969Z,45.07
2022-08-06T12:15:58.960Z,45.46
2022-08-06T12:18:39.507Z,46.96
2022-08-06T12:21:29.605Z,45.98
2022-08-06T12:24:51.607Z,45.35
2022-08-06T12:27:46.013Z,47.05
2022-08-06T12:30:48.705Z,46.59
2022-08-06T12:33:44.154Z,46.43
2022-08-06T12:36:35.251Z,46.85
2022-08-06T12:39:45.591Z,46.61
2022-08-06T12:42:53.926Z,46.20
2022-08-06T12:46:06.866Z,45.25
2022-08-06T12:49:06.517Z,45.63
2022-08-06T12:51:54.670Z,43.48
2022-08-06T12:54:47.747Z,43.74
2022-08-06T12:57:57.803Z,44.58
2022-08-06T13:00:58.153Z,46.14
2022-08-06T13:04:01.423Z,44.13
2022-08-06T13:07:21.170Z,45.30
2022-08-06T13:10:39.038Z,43.39
2022-08-06T13:14:14.410Z,44.16
2022-08-06T13:16:56.539Z,44.17
2022-08-06T13:19:56.449Z,44.61
2022-08-06T13:22:54.205Z,42.80
2022-08-06T13:25:53.035Z,44.11
2022-08-06T13:30:31.298Z,44.37
2022-08-06T13:32:33.290Z,44.56
2022-08-06T13:35:32.762Z,43.10
2022-08-06T13:38:36.849Z,43.54
2022-08-06T13:41:29.668Z,44.59
2022-08-06T13:44:34.067Z,45.04
2022-08-06T13:47:38.719Z,43.32
2022-08-06T13:50:41.033Z,43.94
2022-08-06T13:53:40.443Z,43.99
2022-08-06T13:56:37.497Z,43.21
2022-08-06T13:59:41.460Z,43.22
2022-08-06T14:02:30.415Z,44.28
2022-08-06T14:05:23.823Z,44.13
2022-08-06T14:08:26.735Z,44.24
2022-08-06T14:11:21.708Z,43.42
2022-08-06T14:14:09.225Z,44.07
2022-08-06T14:17:03.181Z,44.19
2022-08-06T14:20:14.887Z,44.18
2022-08-06T14:22:55.658Z,43.67
2022-08-06T14:26:00.442Z,44.04
2022-08-06T14:28:54.591Z,43.55
2022-08-06T14:31:58.659Z,44.64
2022-08-06T14:34:45.301Z,43.89
2022-08-06T14:37:32.920Z,44.82
2022-08-06T14:41:02.102Z,45.27
2022-08-06T14:44:07.846Z,44.91
2022-08-06T14:46:55.487Z,45.12
2022-08-06T14:49:51.960Z,45.35
2022-08-06T14:52:40.633Z,45.52
2022-08-06T14:55:31.668Z,44.98
2022-08-06T14:58:17.972Z,44.54
2022-08-06T15:01:17.428Z,44.27
2022-08-06T15:04:24.180Z,44.10
2022-08-06T15:07:24.812Z,43.55
2022-08-06T15:10:29.672Z,44.29
2022-08-06T15:13:16.293Z,43.81
2022-08-06T15:16:22.457Z,43.34
2022-08-06T15:19:20.660Z,43.86
2022-08-06T15:22:35.641Z,43.90
2022-08-06T15:26:01.595Z,44.68
2022-08-06T15:28:31.078Z,44.41
2022-08-06T15:31:20.572Z,44.80
2022-08-06T15:34:07.026Z,45.35
2022-08-06T15:37:01.420Z,44.82
2022-08-06T15:39:53.276Z,44.47
2022-08-06T15:42:43.611Z,43.52
2022-08-06T15:45:50.246Z,43.62
2022-08-06T15:48:35.099Z,44.44
2022-08-06T15:51:29.647Z,45.38
2022-08-06T15:54:18.806Z,45.69
2022-08-06T15:57:06.472Z,46.20
2022-08-06T16:00:05.165Z,46.31
2022-08-06T16:03:08.626Z,47.18
2022-08-06T16:06:12.708Z,47.98
2022-08-06T16:09:04.965Z,48.98
2022-08-06T16:11:54.563Z,49.28
2022-08-06T16:14:47.709Z,49.87
2022-08-06T16:18:05.954Z,50.39
2022-08-06T16:20:56.966Z,50.71
2022-08-06T16:23:56.633Z,52.18
2022-08-06T16:26:48.566Z,52.60
2022-08-06T16:29:37.091Z,52.46
2022-08-06T16:32:26.095Z,52.87
2022-08-06T16:35:15.454Z,53.29
2022-08-06T16:38:12.109Z,53.29
2022-08-06T16:41:03.700Z,53.30
2022-08-06T16:43:52.206Z,53.37
2022-08-06T16:46:43.681Z,53.40
2022-08-06T16:50:17.305Z,54.19
2022-08-06T16:52:43.232Z,53.84
2022-08-06T16:55:48.869Z,54.67
2022-08-06T16:58:42.711Z,55.27
2022-08-06T17:02:20.876Z,56.11
2022-08-06T17:05:03.221Z,56.81
2022-08-06T17:07:55.055Z,57.34
2022-08-06T17:10:58.152Z,58.08
2022-08-06T17:14:05.458Z,58.96
2022-08-06T17:17:06.954Z,59.16
2022-08-06T17:19:55.665Z,59.61
2022-08-06T17:23:01.728Z,60.21
2022-08-06T17:26:01.176Z,60.07
2022-08-06T17:28:51.995Z,60.08
2022-08-06T17:31:58.404Z,60.58
2022-08-06T17:34:48.297Z,60.97
2022-08-06T17:37:43.784Z,61.07
2022-08-06T17:40:34.245Z,61.18
2022-08-06T17:43:56.725Z,61.41
2022-08-06T17:46:37.822Z,61.15
2022-08-06T17:49:38.063Z,61.01
2022-08-06T17:52:31.970Z,61.31
2022-08-06T17:55:36.784Z,60.88
2022-08-06T17:58:37.462Z,61.63
2022-08-06T18:01:44.132Z,61.58
2022-08-06T18:04:35.621Z,61.64
2022-08-06T18:08:07.935Z,61.68
2022-08-06T18:10:36.603Z,62.24
2022-08-06T18:13:52.062Z,62.41
2022-08-06T18:16:44.611Z,62.99
2022-08-06T18:19:36.465Z,63.21
2022-08-06T18:22:25.481Z,63.15
2022-08-06T18:25:14.819Z,63.23
2022-08-06T18:28:01.887Z,63.30
2022-08-06T18:30:50.831Z,64.11
2022-08-06T18:33:38.161Z,64.21
2022-08-06T18:36:43.978Z,64.68
2022-08-06T18:40:18.052Z,64.83
2022-08-06T18:42:42.327Z,65.40
2022-08-06T18:45:36.886Z,64.98
2022-08-06T18:48:25.107Z,65.45
2022-08-06T18:51:13.784Z,65.20
2022-08-06T18:54:05.311Z,65.20
2022-08-06T18:56:54.656Z,65.05
2022-08-06T18:59:51.108Z,65.42
2022-08-06T19:02:43.379Z,65.37
2022-08-06T19:05:40.218Z,65.39
2022-08-06T19:08:31.515Z,65.93
2022-08-06T19:11:17.532Z,66.74
2022-08-06T19:14:18.846Z,67.17
2022-08-06T19:17:09.260Z,68.04
2022-08-06T19:20:18.822Z,68.42
2022-08-06T19:23:06.697Z,68.80
2022-08-06T19:26:13.037Z,69.28
2022-08-06T19:29:02.170Z,69.71
2022-08-06T19:31:50.132Z,70.06
2022-08-06T19:34:38.574Z,70.56
2022-08-06T19:37:59.709Z,71.18
2022-08-06T19:40:52.788Z,71.21
2022-08-06T19:44:28.022Z,71.28
2022-08-06T19:46:56.183Z,71.52
2022-08-06T19:49:45.118Z,71.68
2022-08-06T19:52:46.389Z,71.94
2022-08-06T19:56:07.650Z,72.33
2022-08-06T20:00:51.159Z,72.49
2022-08-06T20:02:09.276Z,72.63
2022-08-06T20:05:01.398Z,72.31
2022-08-06T20:07:56.105Z,72.40
2022-08-06T20:10:58.551Z,72.16
2022-08-06T20:13:46.188Z,72.72
2022-08-06T20:16:34.449Z,72.59
2022-08-06T20:20:05.266Z,72.60
2022-08-06T20:22:32.631Z,72.89
2022-08-06T20:25:23.699Z,72.69
2022-08-06T20:29:08.293Z,72.77
2022-08-06T20:31:21.117Z,72.45
2022-08-06T20:34:07.610Z,72.40
2022-08-06T20:36:59.098Z,72.19
2022-08-06T20:39:48.521Z,72.05
2022-08-06T20:42:36.237Z,72.05
2022-08-06T20:45:56.364Z,71.92
2022-08-06T20:48:39.951Z,71.74
2022-08-06T20:51:29.213Z,71.67
2022-08-06T20:54:19.155Z,71.76
2022-08-06T20:57:13.013Z,71.80
2022-08-06T21:00:28.549Z,72.00
2022-08-06T21:05:11.578Z,72.29
2022-08-06T21:06:30.777Z,72.55
2022-08-06T21:09:19.934Z,72.90
2022-08-06T21:12:21.134Z,73.13
2022-08-06T21:15:42.543Z,73.70
2022-08-06T21:18:21.822Z,73.70
2022-08-06T21:21:11.066Z,73.89
2022-08-06T21:23:58.360Z,74.40
2022-08-06T21:26:56.254Z,74.18
2022-08-06T21:30:09.239Z,74.51
2022-08-06T21:32:54.368Z,74.46
2022-08-06T21:35:42.525Z,73.81
2022-08-06T21:38:29.879Z,73.04
2022-08-06T21:41:56.082Z,72.11
2022-08-06T21:44:37.175Z,71.95
2022-08-06T21:47:36.379Z,72.36
2022-08-06T21:50:32.819Z,72.87
2022-08-06T21:53:49.939Z,73.49
2022-08-06T21:56:38.037Z,73.27
2022-08-06T21:59:29.825Z,73.30
2022-08-06T22:02:28.028Z,73.54
2022-08-06T22:05:16.870Z,73.83
2022-08-06T22:08:19.095Z,73.74
2022-08-06T22:12:37.577Z,74.33
2022-08-06T22:14:16.287Z,74.45
2022-08-06T22:17:01.866Z,74.81
2022-08-06T22:19:47.605Z,74.85
2022-08-06T22:22:36.028Z,75.02
2022-08-06T22:25:24.014Z,75.32
2022-08-06T22:28:09.854Z,75.51
2022-08-06T22:31:09.037Z,75.61
2022-08-06T22:34:01.119Z,75.62
2022-08-06T22:36:51.605Z,75.34
2022-08-06T22:39:39.685Z,75.24
2022-08-06T22:42:35.632Z,75.26
2022-08-06T22:46:00.205Z,75.60
2022-08-06T22:48:37.440Z,75.45
2022-08-06T22:51:28.716Z,75.79
2022-08-06T22:54:28.918Z,75.90
2022-08-06T22:57:18.707Z,75.78
2022-08-06T23:00:11.748Z,76.01
2022-08-06T23:03:13.562Z,75.62
2022-08-06T23:06:00.482Z,75.84
2022-08-06T23:08:46.563Z,75.40
2022-08-06T23:11:35.468Z,75.81
2022-08-06T23:14:27.343Z,75.85
2022-08-06T23:17:22.035Z,75.76
2022-08-06T23:20:11.761Z,76.20
2022-08-06T23:22:58.284Z,76.12
2022-08-06T23:26:00.568Z,76.19
2022-08-06T23:28:49.089Z,76.47
2022-08-06T23:31:37.108Z,76.63
2022-08-06T23:34:35.763Z,76.96
2022-08-06T23:37:21.481Z,76.99
2022-08-06T23:40:15.668Z,77.09
2022-08-06T23:43:01.699Z,77.20
2022-08-06T23:45:48.013Z,77.28
2022-08-06T23:48:34.358Z,77.47
2022-08-06T23:52:01.187Z,77.23
2022-08-06T23:54:28.738Z,77.38
2022-08-06T23:57:17.667Z,77.95
